createdAt,value
2023-03-28T00:01:16.357Z,7.73
2023-03-28T00:03:45.582Z,8.73
2023-03-28T00:06:19.015Z,8.33
2023-03-28T00:08:51.475Z,8.83
2023-03-28T00:11:22.172Z,8.00
2023-03-28T00:13:58.251Z,12.40
2023-03-28T00:16:32.653Z,6.80
2023-03-28T00:19:02.538Z,5.77
2023-03-28T00:21:33.955Z,7.17
2023-03-28T00:24:11.034Z,8.70
2023-03-28T00:27:00.883Z,9.53
2023-03-28T00:29:30.364Z,9.03
2023-03-28T00:31:59.517Z,8.20
2023-03-28T00:34:28.825Z,8.73
2023-03-28T00:36:57.868Z,9.10
2023-03-28T00:39:29.671Z,9.10
2023-03-28T00:42:01.812Z,7.67
2023-03-28T00:44:46.656Z,11.27
2023-03-28T00:47:31.109Z,6.20
2023-03-28T00:50:05.415Z,13.87
2023-03-28T00:52:40.231Z,13.53
2023-03-28T00:55:15.441Z,8.37
2023-03-28T00:57:46.227Z,10.60
2023-03-28T01:00:19.106Z,10.27
2023-03-28T01:02:52.632Z,8.77
2023-03-28T01:05:24.946Z,8.67
2023-03-28T01:07:59.663Z,5.63
2023-03-28T01:10:31.541Z,8.37
2023-03-28T01:32:11.579Z,313.55
2023-03-28T01:35:26.510Z,897.30
2023-03-28T01:40:37.303Z,747.38
2023-03-28T01:43:19.872Z,708.73
2023-03-28T01:45:57.205Z,769.70
2023-03-28T01:58:48.763Z,920.35
2023-03-28T02:01:37.036Z,684.17
2023-03-28T07:32:17.734Z,56.27
2023-03-28T07:34:48.006Z,15.00
2023-03-28T07:37:24.833Z,12.17
2023-03-28T07:40:14.919Z,15.07
2023-03-28T07:42:44.269Z,15.67
2023-03-28T07:45:13.628Z,16.33
2023-03-28T07:47:43.207Z,14.43
2023-03-28T07:50:12.946Z,11.07
2023-03-28T07:52:45.818Z,13.03
2023-03-28T07:55:15.906Z,10.53
2023-03-28T07:57:50.248Z,12.93
2023-03-28T08:00:34.362Z,11.67
2023-03-28T08:03:36.531Z,10.37
2023-03-28T08:06:16.605Z,9.07
2023-03-28T08:08:55.172Z,11.90
2023-03-28T08:11:31.199Z,17.47
2023-03-28T08:14:00.187Z,26.53
2023-03-28T08:16:31.059Z,30.63
2023-03-28T08:19:10.484Z,20.67
2023-03-28T08:21:59.049Z,16.60
2023-03-28T08:24:36.226Z,12.00
2023-03-28T08:27:13.287Z,21.40
2023-03-28T08:30:00.920Z,26.83
2023-03-28T08:32:32.374Z,21.67
2023-03-28T08:35:06.106Z,26.63
2023-03-28T08:37:35.328Z,22.10
2023-03-28T08:40:09.015Z,19.77
2023-03-28T08:43:08.271Z,9.63
2023-03-28T08:45:49.529Z,5.20
2023-03-28T08:48:24.086Z,5.33
2023-03-28T08:50:59.481Z,7.67
2023-03-28T08:53:34.531Z,4.90
2023-03-28T08:56:07.966Z,4.60
2023-03-28T08:58:50.360Z,15.13
2023-03-28T09:01:22.530Z,45.57
2023-03-28T09:03:52.001Z,13.27
2023-03-28T09:06:31.251Z,4.87
2023-03-28T09:09:32.489Z,6.70
2023-03-28T09:12:46.369Z,4.97
2023-03-28T09:15:40.241Z,5.27
2023-03-28T09:18:26.103Z,6.77
2023-03-28T09:21:03.791Z,7.63
2023-03-28T09:24:03.256Z,11.37
2023-03-28T09:26:35.114Z,15.17
2023-03-28T09:29:13.216Z,15.27
2023-03-28T09:31:47.310Z,12.67
2023-03-28T09:34:23.649Z,14.43
2023-03-28T09:36:57.619Z,10.13
2023-03-28T09:39:51.605Z,8.53
2023-03-28T09:42:32.821Z,12.97
2023-03-28T09:45:38.211Z,13.60
2023-03-28T09:48:09.029Z,8.00
2023-03-28T09:50:48.316Z,7.40
2023-03-28T09:53:24.148Z,8.63
2023-03-28T09:56:03.530Z,12.80
2023-03-28T09:58:51.205Z,23.77
2023-03-28T10:01:44.046Z,17.83
2023-03-28T10:04:37.954Z,13.90
2023-03-28T10:07:43.940Z,14.40
2023-03-28T10:10:28.964Z,11.43
2023-03-28T10:13:08.143Z,6.63
2023-03-28T10:15:43.820Z,7.90
2023-03-28T10:18:21.096Z,7.93
2023-03-28T10:21:14.026Z,9.30
2023-03-28T10:23:49.542Z,7.30
2023-03-28T10:26:24.476Z,9.50
2023-03-28T10:28:55.672Z,12.30
2023-03-28T10:31:30.781Z,8.07
2023-03-28T10:34:39.749Z,6.50
2023-03-28T10:37:28.608Z,7.80
2023-03-28T10:40:30.334Z,7.33
2023-03-28T10:43:14.113Z,8.00
2023-03-28T10:46:17.539Z,9.27
2023-03-28T10:49:07.687Z,7.87
2023-03-28T10:51:46.279Z,7.63
2023-03-28T10:54:43.510Z,6.77
2023-03-28T10:57:28.822Z,6.50
2023-03-28T11:00:09.815Z,8.10
2023-03-28T11:03:19.854Z,9.37
2023-03-28T11:06:08.013Z,8.40
2023-03-28T11:08:54.742Z,8.57
2023-03-28T11:11:37.720Z,9.03
2023-03-28T11:14:21.321Z,8.30
2023-03-28T11:16:59.183Z,8.30
2023-03-28T11:19:58.402Z,10.50
2023-03-28T11:22:45.851Z,11.47
2023-03-28T11:25:32.990Z,26.57
2023-03-28T11:28:26.426Z,38.30
2023-03-28T11:31:02.357Z,25.30
2023-03-28T11:33:49.439Z,18.40
2023-03-28T11:36:29.910Z,13.63
2023-03-28T11:39:05.596Z,13.43
2023-03-28T11:41:41.174Z,17.43
2023-03-28T11:44:19.409Z,14.60
2023-03-28T11:46:54.684Z,14.20
2023-03-28T11:49:28.705Z,31.93
2023-03-28T11:52:03.053Z,13.93
2023-03-28T11:54:37.388Z,14.53
2023-03-28T11:57:14.171Z,21.80
2023-03-28T11:59:56.252Z,20.73
2023-03-28T12:02:41.664Z,27.70
2023-03-28T12:05:21.138Z,14.07
2023-03-28T12:07:57.033Z,15.07
2023-03-28T12:10:36.724Z,13.43
2023-03-28T12:13:18.891Z,10.83
2023-03-28T12:16:13.422Z,11.20
2023-03-28T12:18:45.718Z,15.33
2023-03-28T12:21:34.858Z,17.40
2023-03-28T12:24:14.353Z,13.43
2023-03-28T12:27:02.420Z,13.43
2023-03-28T12:29:40.790Z,15.17
2023-03-28T12:32:34.725Z,19.77
2023-03-28T12:35:15.574Z,22.13
2023-03-28T12:38:08.078Z,18.00
2023-03-28T12:40:56.851Z,23.60
2023-03-28T12:43:32.340Z,23.17
2023-03-28T12:46:06.147Z,44.27
2023-03-28T12:48:42.461Z,32.70
2023-03-28T12:51:18.123Z,27.07
2023-03-28T12:54:02.085Z,20.67
2023-03-28T12:56:31.289Z,21.63
2023-03-28T12:59:00.853Z,24.60
2023-03-28T13:01:49.577Z,24.83
2023-03-28T13:04:29.994Z,12.17
2023-03-28T13:07:27.743Z,11.00
2023-03-28T13:10:06.568Z,12.23
2023-03-28T13:12:54.378Z,10.23
2023-03-28T13:15:32.675Z,15.30
2023-03-28T13:18:31.862Z,8.87
2023-03-28T13:21:04.490Z,10.30
2023-03-28T13:23:46.310Z,7.53
2023-03-28T13:26:15.542Z,12.10
2023-03-28T13:28:46.680Z,14.10
2023-03-28T13:31:23.003Z,11.33
2023-03-28T13:33:58.874Z,6.40
2023-03-28T13:36:30.893Z,11.67
2023-03-28T13:39:08.659Z,7.40
2023-03-28T13:41:56.468Z,3.33
2023-03-28T13:44:32.860Z,4.20
2023-03-28T13:47:02.019Z,6.30
2023-03-28T13:49:42.861Z,8.13
2023-03-28T13:52:17.072Z,12.40
2023-03-28T13:54:54.378Z,10.40
2023-03-28T13:57:26.266Z,10.97
2023-03-28T13:59:58.793Z,9.27
2023-03-28T14:02:38.150Z,9.63
2023-03-28T14:05:16.817Z,7.77
2023-03-28T14:07:45.879Z,7.73
2023-03-28T14:10:30.627Z,8.90
2023-03-28T14:13:02.732Z,10.03
2023-03-28T14:15:38.817Z,7.30
2023-03-28T14:18:13.764Z,8.77
2023-03-28T14:21:03.834Z,10.23
2023-03-28T14:23:36.793Z,23.33
2023-03-28T14:26:10.660Z,16.83
2023-03-28T14:28:42.201Z,73.17
2023-03-28T14:31:35.139Z,140.33
2023-03-28T14:34:17.706Z,87.07
2023-03-28T14:36:59.727Z,58.70
2023-03-28T14:39:30.314Z,49.07
2023-03-28T14:42:02.696Z,30.57
2023-03-28T14:44:33.444Z,29.40
2023-03-28T14:47:02.561Z,24.37
2023-03-28T14:49:33.081Z,35.57
2023-03-28T14:52:04.598Z,19.43
2023-03-28T14:54:37.286Z,29.50
2023-03-28T14:57:07.064Z,14.80
2023-03-28T14:59:40.987Z,7.87
2023-03-28T15:02:22.502Z,7.27
2023-03-28T15:04:52.606Z,5.20
2023-03-28T15:07:27.012Z,5.90
2023-03-28T15:10:08.900Z,4.47
2023-03-28T15:12:46.786Z,4.47
2023-03-28T15:15:22.910Z,4.07
2023-03-28T15:17:54.185Z,4.30
2023-03-28T15:20:28.343Z,5.97
2023-03-28T15:23:01.539Z,11.37
2023-03-28T15:25:32.557Z,14.07
2023-03-28T15:28:06.534Z,10.10
2023-03-28T15:30:46.387Z,8.47
2023-03-28T15:33:19.481Z,11.87
2023-03-28T15:35:49.624Z,18.53
2023-03-28T15:38:23.440Z,10.70
2023-03-28T15:40:54.262Z,9.37
2023-03-28T15:43:41.689Z,4.20
2023-03-28T15:46:13.452Z,7.40
2023-03-28T15:48:57.526Z,9.17
2023-03-28T15:51:47.536Z,3.40
2023-03-28T15:54:28.413Z,22.03
2023-03-28T15:57:02.534Z,23.33
2023-03-28T15:59:36.356Z,14.17
2023-03-28T16:02:37.482Z,10.43
2023-03-28T16:05:08.261Z,10.17
2023-03-28T16:07:48.611Z,10.03
2023-03-28T16:10:22.047Z,9.00
2023-03-28T16:13:16.999Z,7.07
2023-03-28T16:16:09.894Z,36.00
2023-03-28T16:18:49.205Z,27.47
2023-03-28T16:21:19.260Z,11.10
2023-03-28T16:23:48.831Z,7.10
2023-03-28T16:26:19.383Z,4.80
2023-03-28T16:28:48.658Z,5.13
2023-03-28T16:31:17.639Z,5.97
2023-03-28T16:33:46.623Z,4.13
2023-03-28T16:36:15.643Z,5.63
2023-03-28T16:38:45.234Z,5.40
2023-03-28T16:41:14.236Z,4.83
2023-03-28T16:43:44.905Z,4.20
2023-03-28T16:46:13.971Z,3.67
2023-03-28T16:48:42.903Z,2.10
2023-03-28T16:51:11.837Z,2.40
2023-03-28T16:53:41.891Z,11.77
2023-03-28T16:56:12.437Z,12.10
2023-03-28T16:58:41.646Z,3.43
2023-03-28T17:01:14.101Z,5.47
2023-03-28T17:04:01.565Z,3.10
2023-03-28T17:06:31.077Z,1.90
2023-03-28T17:09:00.129Z,2.10
2023-03-28T17:11:29.066Z,2.50
2023-03-28T17:13:59.288Z,2.47
2023-03-28T17:16:48.133Z,2.80
2023-03-28T17:19:19.439Z,5.47
2023-03-28T17:21:48.676Z,2.73
2023-03-28T17:24:18.316Z,4.93
2023-03-28T17:26:47.384Z,4.67
2023-03-28T17:29:16.759Z,3.93
2023-03-28T17:32:46.635Z,5.73
2023-03-28T17:35:20.032Z,9.67
2023-03-28T17:37:54.874Z,17.43
2023-03-28T17:40:31.393Z,13.83
2023-03-28T17:43:02.525Z,13.80
2023-03-28T17:45:31.810Z,8.17
2023-03-28T17:48:02.205Z,6.47
2023-03-28T17:50:31.202Z,5.30
2023-03-28T17:53:01.498Z,11.93
2023-03-28T17:55:30.659Z,18.83
2023-03-28T17:57:59.762Z,20.47
2023-03-28T18:00:31.339Z,19.30
2023-03-28T18:03:04.802Z,21.43
2023-03-28T18:06:03.690Z,28.33
2023-03-28T18:08:33.625Z,24.23
2023-03-28T18:11:03.787Z,23.20
2023-03-28T18:13:33.027Z,20.27
2023-03-28T18:16:04.377Z,20.97
2023-03-28T18:18:35.383Z,20.83
2023-03-28T18:21:04.526Z,17.03
2023-03-28T18:23:33.663Z,19.23
2023-03-28T18:26:03.606Z,18.37
2023-03-28T18:28:32.868Z,16.00
2023-03-28T18:31:09.694Z,10.77
2023-03-28T18:33:40.364Z,8.23
2023-03-28T18:36:10.686Z,7.67
2023-03-28T18:38:42.470Z,7.23
2023-03-28T18:41:12.942Z,7.00
2023-03-28T18:43:55.350Z,7.10
2023-03-28T18:47:10.822Z,11.17
2023-03-28T18:49:46.863Z,19.00
2023-03-28T18:52:17.191Z,21.87
2023-03-28T18:54:54.059Z,23.83
2023-03-28T18:57:25.731Z,24.17
2023-03-28T18:59:59.576Z,23.67
2023-03-28T19:02:29.458Z,21.77
2023-03-28T19:04:59.996Z,23.87
2023-03-28T19:07:29.103Z,25.13
2023-03-28T19:09:58.234Z,18.97
2023-03-28T19:12:27.363Z,18.33
2023-03-28T19:14:56.472Z,32.50
2023-03-28T19:17:26.266Z,78.53
2023-03-28T19:19:56.217Z,80.63
2023-03-28T19:22:27.949Z,34.47
2023-03-28T19:24:57.864Z,28.20
2023-03-28T19:27:26.838Z,89.13
2023-03-28T19:29:55.847Z,64.73
2023-03-28T19:32:46.787Z,48.33
2023-03-28T19:35:16.195Z,53.93
2023-03-28T19:37:47.265Z,70.07
2023-03-28T19:40:44.117Z,101.23
2023-03-28T19:43:13.520Z,34.67
2023-03-28T19:45:42.915Z,12.70
2023-03-28T19:48:11.928Z,7.33
2023-03-28T19:50:41.543Z,8.73
2023-03-28T19:53:12.090Z,7.67
2023-03-28T19:55:41.054Z,9.27
2023-03-28T19:58:10.448Z,13.47
2023-03-28T20:00:39.400Z,13.73
2023-03-28T20:03:08.481Z,17.60
2023-03-28T20:05:43.184Z,17.43
2023-03-28T20:08:14.639Z,16.53
2023-03-28T20:10:45.068Z,19.83
2023-03-28T20:13:14.560Z,17.40
2023-03-28T20:15:45.396Z,17.07
2023-03-28T21:11:40.678Z,189.53
2023-03-28T21:14:12.103Z,29.60
2023-03-28T21:17:00.161Z,20.67
2023-03-28T21:19:29.284Z,15.40
2023-03-28T21:21:58.275Z,16.93
2023-03-28T21:24:28.658Z,15.17
2023-03-28T21:26:57.552Z,15.67
2023-03-28T21:29:26.530Z,13.63
2023-03-28T21:31:55.409Z,15.27
2023-03-28T21:36:59.835Z,13.07
2023-03-28T21:39:30.282Z,26.57
